createdAt,value
2022-08-21T00:00:46.746Z,550.00
2022-08-21T00:01:41.847Z,553.00
2022-08-21T00:02:37.014Z,552.00
2022-08-21T00:03:31.987Z,551.00
2022-08-21T00:04:29.508Z,552.00
2022-08-21T00:05:22.126Z,550.00
2022-08-21T00:06:17.109Z,562.00
2022-08-21T00:07:12.187Z,561.00
2022-08-21T00:08:07.178Z,556.00
2022-08-21T00:09:06.240Z,557.00
2022-08-21T00:09:57.284Z,554.00
2022-08-21T00:10:52.252Z,551.00
2022-08-21T00:11:47.354Z,556.00
2022-08-21T00:12:42.419Z,549.00
2022-08-21T00:13:37.402Z,552.00
2022-08-21T00:14:32.532Z,560.00
2022-08-21T00:15:27.563Z,554.00
2022-08-21T00:16:22.652Z,552.00
2022-08-21T00:17:17.741Z,558.00
2022-08-21T00:18:12.871Z,559.00
2022-08-21T00:19:07.940Z,558.00
2022-08-21T00:20:03.020Z,550.00
2022-08-21T00:21:03.141Z,548.00
2022-08-21T00:21:58.220Z,561.00
2022-08-21T00:22:53.296Z,552.00
2022-08-21T00:23:48.397Z,557.00
2022-08-21T00:24:43.648Z,550.00
2022-08-21T00:25:39.017Z,556.00
2022-08-21T00:26:33.980Z,556.00
2022-08-21T00:27:29.180Z,557.00
2022-08-21T00:28:24.441Z,573.00
2022-08-21T00:29:20.378Z,568.00
2022-08-21T00:30:22.870Z,565.00
2022-08-21T00:31:12.629Z,552.00
2022-08-21T00:32:06.756Z,548.00
2022-08-21T00:33:02.150Z,552.00
2022-08-21T00:34:01.048Z,557.00
2022-08-21T00:34:53.827Z,561.00
2022-08-21T00:35:48.910Z,556.00
2022-08-21T00:36:45.384Z,553.00
2022-08-21T00:37:40.690Z,557.00
2022-08-21T00:38:36.467Z,561.00
2022-08-21T00:39:31.671Z,555.00
2022-08-21T00:40:26.812Z,555.00
2022-08-21T00:41:37.029Z,548.00
2022-08-21T00:42:18.810Z,553.00
2022-08-21T00:43:13.521Z,556.00
2022-08-21T00:44:08.725Z,552.00
2022-08-21T00:45:03.992Z,552.00
2022-08-21T00:45:59.784Z,549.00
2022-08-21T00:46:54.946Z,548.00
2022-08-21T00:47:50.086Z,546.00
2022-08-21T00:48:46.492Z,554.00
2022-08-21T00:49:41.775Z,552.00
2022-08-21T00:50:37.615Z,547.00
2022-08-21T00:51:32.769Z,553.00
2022-08-21T00:52:29.429Z,552.00
2022-08-21T00:53:23.615Z,551.00
2022-08-21T00:54:19.598Z,550.00
2022-08-21T00:55:14.729Z,541.00
2022-08-21T00:56:10.838Z,542.00
2022-08-21T00:57:06.007Z,540.00
2022-08-21T00:58:01.223Z,546.00
2022-08-21T00:58:57.197Z,545.00
2022-08-21T00:59:52.329Z,544.00
2022-08-21T01:00:47.769Z,541.00
2022-08-21T01:01:43.604Z,545.00
2022-08-21T01:02:38.738Z,548.00
2022-08-21T01:03:33.973Z,548.00
2022-08-21T01:04:30.253Z,543.00
2022-08-21T01:05:25.490Z,551.00
2022-08-21T01:06:21.312Z,545.00
2022-08-21T01:07:16.538Z,544.00
2022-08-21T01:08:11.770Z,548.00
2022-08-21T01:09:07.446Z,554.00
2022-08-21T01:10:02.696Z,556.00
2022-08-21T01:10:58.485Z,547.00
2022-08-21T01:11:53.722Z,546.00
2022-08-21T01:12:49.093Z,543.00
2022-08-21T01:13:44.767Z,560.00
2022-08-21T01:14:40.017Z,553.00
2022-08-21T01:15:35.094Z,554.00
2022-08-21T01:16:31.543Z,557.00
2022-08-21T01:17:26.834Z,551.00
2022-08-21T01:18:22.633Z,544.00
2022-08-21T01:19:17.842Z,542.00
2022-08-21T01:20:12.989Z,541.00
2022-08-21T01:21:08.773Z,550.00
2022-08-21T01:22:03.936Z,545.00
2022-08-21T01:22:59.891Z,549.00
2022-08-21T01:23:54.896Z,543.00
2022-08-21T01:24:50.064Z,543.00
2022-08-21T01:25:46.002Z,550.00
2022-08-21T01:26:41.141Z,548.00
2022-08-21T01:27:36.437Z,573.00
2022-08-21T01:28:32.644Z,559.00
2022-08-21T01:29:27.840Z,546.00
2022-08-21T01:30:23.041Z,543.00
2022-08-21T01:31:18.348Z,544.00
2022-08-21T01:32:15.204Z,537.00
2022-08-21T01:33:09.391Z,547.00
2022-08-21T01:34:04.590Z,544.00
2022-08-21T01:35:00.955Z,547.00
2022-08-21T01:35:56.481Z,553.00
2022-08-21T01:36:52.012Z,541.00
2022-08-21T01:37:47.113Z,540.00
2022-08-21T01:38:42.234Z,541.00
2022-08-21T01:39:38.116Z,542.00
2022-08-21T01:40:33.248Z,539.00
2022-08-21T01:41:29.183Z,538.00
2022-08-21T01:42:24.276Z,545.00
2022-08-21T01:43:23.882Z,548.00
2022-08-21T01:44:16.526Z,546.00
2022-08-21T01:45:10.709Z,547.00
2022-08-21T01:46:06.058Z,550.00
2022-08-21T01:47:01.166Z,547.00
2022-08-21T01:47:56.244Z,548.00
2022-08-21T01:48:51.234Z,554.00
2022-08-21T01:49:46.357Z,543.00
2022-08-21T01:50:41.436Z,559.00
2022-08-21T01:51:36.436Z,539.00
2022-08-21T01:52:31.517Z,538.00
2022-08-21T01:53:28.682Z,542.00
2022-08-21T01:54:24.140Z,562.00
2022-08-21T01:55:18.175Z,556.00
2022-08-21T01:56:13.273Z,558.00
2022-08-21T01:57:08.377Z,557.00
2022-08-21T01:58:03.483Z,555.00
2022-08-21T01:58:58.561Z,552.00
2022-08-21T01:59:53.701Z,558.00
2022-08-21T02:00:48.860Z,546.00
2022-08-21T02:01:43.835Z,557.00
2022-08-21T02:02:38.910Z,555.00
2022-08-21T02:03:35.674Z,557.00
2022-08-21T02:04:28.992Z,565.00
2022-08-21T02:05:24.109Z,564.00
2022-08-21T02:06:19.259Z,556.00
2022-08-21T02:07:14.111Z,551.00
2022-08-21T02:08:09.179Z,555.00
2022-08-21T02:09:04.127Z,552.00
2022-08-21T02:09:59.160Z,558.00
2022-08-21T02:10:54.413Z,558.00
2022-08-21T02:11:49.606Z,566.00
2022-08-21T02:12:44.685Z,552.00
2022-08-21T02:13:39.796Z,551.00
2022-08-21T02:14:34.936Z,551.00
2022-08-21T02:15:30.037Z,556.00
2022-08-21T02:16:25.110Z,551.00
2022-08-21T02:17:20.192Z,553.00
2022-08-21T02:18:15.173Z,560.00
2022-08-21T02:19:10.230Z,552.00
2022-08-21T02:20:05.337Z,556.00
2022-08-21T02:21:02.604Z,556.00
2022-08-21T02:21:57.801Z,561.00
2022-08-21T02:22:53.018Z,556.00
2022-08-21T02:23:48.122Z,550.00
2022-08-21T02:24:54.692Z,542.00
2022-08-21T02:25:39.621Z,543.00
2022-08-21T02:26:33.685Z,547.00
2022-08-21T02:27:28.772Z,553.00
2022-08-21T02:28:23.903Z,544.00
2022-08-21T02:29:18.889Z,562.00
2022-08-21T02:30:13.895Z,549.00
2022-08-21T02:31:09.003Z,557.00
2022-08-21T02:32:09.683Z,550.00
2022-08-21T02:33:04.639Z,546.00
2022-08-21T02:33:59.880Z,543.00
2022-08-21T02:34:55.705Z,534.00
2022-08-21T02:35:50.942Z,538.00
2022-08-21T02:36:46.297Z,542.00
2022-08-21T02:37:43.417Z,543.00
2022-08-21T02:38:37.579Z,538.00
2022-08-21T02:39:33.395Z,549.00
2022-08-21T02:40:28.599Z,536.00
2022-08-21T02:41:23.908Z,531.00
2022-08-21T02:42:19.480Z,534.00
2022-08-21T02:43:14.727Z,539.00
2022-08-21T02:44:10.538Z,530.00
2022-08-21T02:45:05.747Z,533.00
2022-08-21T02:46:01.177Z,530.00
2022-08-21T02:46:56.870Z,528.00
2022-08-21T02:47:52.126Z,532.00
2022-08-21T02:48:47.216Z,529.00
2022-08-21T02:49:43.677Z,531.00
2022-08-21T02:50:38.948Z,539.00
2022-08-21T02:51:34.763Z,536.00
2022-08-21T02:52:29.865Z,543.00
2022-08-21T02:53:24.992Z,543.00
2022-08-21T02:54:20.803Z,538.00
2022-08-21T02:55:15.948Z,542.00
2022-08-21T02:56:11.767Z,546.00
2022-08-21T02:57:06.855Z,545.00
2022-08-21T02:58:02.128Z,557.00
2022-08-21T02:58:57.787Z,553.00
2022-08-21T02:59:52.922Z,545.00
2022-08-21T03:00:48.000Z,540.00
2022-08-21T03:01:44.434Z,536.00
2022-08-21T03:02:39.563Z,541.00
2022-08-21T03:03:35.353Z,545.00
2022-08-21T03:04:30.486Z,539.00
2022-08-21T03:05:25.600Z,542.00
2022-08-21T03:06:21.435Z,552.00
2022-08-21T03:07:16.549Z,540.00
2022-08-21T03:08:12.477Z,533.00
2022-08-21T03:09:07.590Z,536.00
2022-08-21T03:10:03.152Z,556.00
2022-08-21T03:10:58.841Z,538.00
2022-08-21T03:11:54.066Z,534.00
2022-08-21T03:12:49.423Z,545.00
2022-08-21T03:13:45.523Z,541.00
2022-08-21T03:14:40.759Z,535.00
2022-08-21T03:15:36.595Z,536.00
2022-08-21T03:16:34.850Z,544.00
2022-08-21T03:17:29.827Z,549.00
2022-08-21T03:18:21.955Z,546.00
2022-08-21T03:19:17.069Z,548.00
2022-08-21T03:20:17.054Z,533.00
2022-08-21T03:21:12.144Z,543.00
2022-08-21T03:22:07.536Z,540.00
2022-08-21T03:23:03.355Z,545.00
2022-08-21T03:23:58.583Z,547.00
2022-08-21T03:24:53.924Z,543.00
2022-08-21T03:25:50.053Z,553.00
2022-08-21T03:26:45.153Z,538.00
2022-08-21T03:27:40.503Z,548.00
2022-08-21T03:28:35.501Z,552.00
2022-08-21T03:29:32.097Z,546.00
2022-08-21T03:30:27.512Z,548.00
2022-08-21T03:31:22.479Z,549.00
2022-08-21T03:32:18.951Z,560.00
2022-08-21T03:33:15.413Z,557.00
2022-08-21T03:34:10.002Z,558.00
2022-08-21T03:35:05.086Z,536.00
2022-08-21T03:36:00.209Z,539.00
2022-08-21T03:36:56.008Z,543.00
2022-08-21T03:37:51.155Z,537.00
2022-08-21T03:38:46.941Z,539.00
2022-08-21T03:39:42.184Z,532.00
2022-08-21T03:40:37.434Z,532.00
2022-08-21T03:41:33.207Z,547.00
2022-08-21T03:42:28.367Z,542.00
2022-08-21T03:43:23.447Z,543.00
2022-08-21T03:44:19.815Z,543.00
2022-08-21T03:45:14.887Z,552.00
2022-08-21T03:46:10.126Z,546.00
2022-08-21T03:47:05.252Z,542.00
2022-08-21T03:48:00.475Z,547.00
2022-08-21T03:48:56.298Z,542.00
2022-08-21T03:49:51.534Z,542.00
2022-08-21T03:50:46.734Z,537.00
2022-08-21T03:51:42.554Z,545.00
2022-08-21T03:52:37.764Z,541.00
2022-08-21T03:53:33.154Z,533.00
2022-08-21T03:54:28.845Z,533.00
2022-08-21T03:55:23.366Z,539.00
2022-08-21T03:56:18.713Z,542.00
2022-08-21T03:57:14.808Z,540.00
2022-08-21T03:58:11.275Z,545.00
2022-08-21T03:59:06.612Z,544.00
2022-08-21T04:00:04.673Z,552.00
2022-08-21T04:00:59.901Z,546.00
2022-08-21T04:01:55.329Z,542.00
2022-08-21T04:02:50.371Z,547.00
2022-08-21T04:03:45.402Z,545.00
2022-08-21T04:04:40.430Z,546.00
2022-08-21T04:05:35.456Z,545.00
2022-08-21T04:06:37.965Z,543.00
2022-08-21T04:07:31.540Z,539.00
2022-08-21T04:08:26.695Z,541.00
2022-08-21T04:09:21.818Z,542.00
2022-08-21T04:10:17.115Z,538.00
2022-08-21T04:11:12.252Z,547.00
2022-08-21T04:12:07.509Z,544.00
2022-08-21T04:13:02.942Z,547.00
2022-08-21T04:13:57.957Z,545.00
2022-08-21T04:14:53.206Z,552.00
2022-08-21T04:15:48.387Z,553.00
2022-08-21T04:16:43.674Z,558.00
2022-08-21T04:17:38.959Z,561.00
2022-08-21T04:18:34.164Z,555.00
2022-08-21T04:19:29.345Z,560.00
2022-08-21T04:20:24.533Z,562.00
2022-08-21T04:21:19.729Z,559.00
2022-08-21T04:22:15.059Z,559.00
2022-08-21T04:23:10.321Z,557.00
2022-08-21T04:24:05.504Z,560.00
2022-08-21T04:25:00.823Z,558.00
2022-08-21T04:25:56.064Z,555.00
2022-08-21T04:26:51.453Z,553.00
2022-08-21T04:27:46.683Z,540.00
2022-08-21T04:28:41.964Z,539.00
2022-08-21T04:29:40.048Z,533.00
2022-08-21T04:30:32.534Z,538.00
2022-08-21T04:31:27.765Z,545.00
2022-08-21T04:32:23.010Z,540.00
2022-08-21T04:33:18.303Z,535.00
2022-08-21T04:34:13.540Z,534.00
2022-08-21T04:35:08.921Z,534.00
2022-08-21T04:36:04.076Z,539.00
2022-08-21T04:36:59.311Z,533.00
2022-08-21T04:37:54.605Z,536.00
2022-08-21T04:38:49.848Z,538.00
2022-08-21T04:39:45.247Z,542.00
2022-08-21T04:40:40.379Z,539.00
2022-08-21T04:41:35.615Z,540.00
2022-08-21T04:42:30.911Z,538.00
2022-08-21T04:43:26.179Z,539.00
2022-08-21T04:44:21.427Z,535.00
2022-08-21T04:45:16.683Z,537.00
2022-08-21T04:46:13.783Z,540.00
2022-08-21T04:47:07.225Z,538.00
2022-08-21T04:48:02.483Z,541.00
2022-08-21T04:48:57.727Z,537.00
2022-08-21T04:49:52.974Z,529.00
2022-08-21T04:50:48.233Z,530.00
2022-08-21T04:51:43.497Z,532.00
2022-08-21T04:52:38.517Z,536.00
2022-08-21T04:53:33.527Z,542.00
2022-08-21T04:54:28.822Z,527.00
2022-08-21T04:55:24.012Z,537.00
2022-08-21T04:56:19.041Z,539.00
2022-08-21T04:57:19.641Z,541.00
2022-08-21T04:58:14.837Z,529.00
2022-08-21T04:59:10.260Z,525.00
2022-08-21T05:00:05.583Z,526.00
2022-08-21T05:01:00.881Z,538.00
2022-08-21T05:01:56.272Z,539.00
2022-08-21T05:02:51.565Z,537.00
2022-08-21T05:03:46.842Z,542.00
2022-08-21T05:04:42.142Z,537.00
2022-08-21T05:05:37.463Z,524.00
2022-08-21T05:06:32.777Z,531.00
2022-08-21T05:07:42.400Z,544.00
2022-08-21T05:08:24.422Z,524.00
2022-08-21T05:09:18.772Z,568.00
2022-08-21T05:10:14.109Z,540.00
2022-08-21T05:11:09.472Z,535.00
2022-08-21T05:12:04.888Z,530.00
2022-08-21T05:13:00.132Z,531.00
2022-08-21T05:13:57.230Z,534.00
2022-08-21T05:14:50.747Z,529.00
2022-08-21T05:15:46.753Z,526.00
2022-08-21T05:16:42.041Z,517.00
2022-08-21T05:17:37.357Z,519.00
2022-08-21T05:18:32.657Z,527.00
2022-08-21T05:19:27.971Z,529.00
2022-08-21T05:20:23.289Z,524.00
2022-08-21T05:21:18.614Z,522.00
2022-08-21T05:22:13.935Z,523.00
2022-08-21T05:23:09.213Z,528.00
2022-08-21T05:24:04.636Z,529.00
2022-08-21T05:24:59.804Z,528.00
2022-08-21T05:25:55.178Z,523.00
2022-08-21T05:26:50.490Z,527.00
2022-08-21T05:27:45.831Z,536.00
2022-08-21T05:28:41.331Z,520.00
2022-08-21T05:29:36.587Z,517.00
2022-08-21T05:30:31.962Z,513.00
2022-08-21T05:31:27.324Z,526.00
2022-08-21T05:32:22.690Z,524.00
2022-08-21T05:33:18.004Z,521.00
2022-08-21T05:34:13.364Z,525.00
2022-08-21T05:35:08.741Z,522.00
2022-08-21T05:36:04.243Z,530.00
2022-08-21T05:37:02.125Z,525.00
2022-08-21T05:37:55.128Z,523.00
2022-08-21T05:38:50.208Z,522.00
2022-08-21T05:40:05.230Z,520.00
2022-08-21T05:40:41.490Z,524.00
2022-08-21T05:41:37.152Z,523.00
2022-08-21T05:42:32.228Z,530.00
2022-08-21T05:43:27.325Z,523.00
2022-08-21T05:44:22.410Z,522.00
2022-08-21T05:45:17.397Z,527.00
2022-08-21T05:46:13.388Z,528.00
2022-08-21T05:47:07.517Z,521.00
2022-08-21T05:48:02.882Z,529.00
2022-08-21T05:48:58.697Z,528.00
2022-08-21T05:49:54.035Z,522.00
2022-08-21T05:50:49.654Z,526.00
2022-08-21T05:51:44.755Z,523.00
2022-08-21T05:52:40.094Z,517.00
2022-08-21T05:53:35.484Z,532.00
2022-08-21T05:54:30.866Z,530.00
2022-08-21T05:55:26.215Z,530.00
2022-08-21T05:56:21.306Z,525.00
2022-08-21T05:57:16.382Z,524.00
2022-08-21T05:58:11.498Z,538.00
2022-08-21T05:59:08.764Z,528.00
2022-08-21T06:00:01.670Z,529.00
2022-08-21T06:00:57.040Z,532.00
2022-08-21T06:01:52.071Z,525.00
2022-08-21T06:02:47.171Z,533.00
2022-08-21T06:03:42.301Z,524.00
2022-08-21T06:04:37.373Z,524.00
2022-08-21T06:05:37.322Z,531.00
2022-08-21T06:06:28.584Z,529.00
2022-08-21T06:07:22.616Z,533.00
2022-08-21T06:08:17.701Z,526.00
2022-08-21T06:09:12.769Z,527.00
2022-08-21T06:10:07.852Z,536.00
2022-08-21T06:11:02.964Z,528.00
2022-08-21T06:11:58.046Z,522.00
2022-08-21T06:12:53.157Z,535.00
2022-08-21T06:13:48.145Z,531.00
2022-08-21T06:14:43.500Z,532.00
2022-08-21T06:15:38.890Z,530.00
2022-08-21T06:16:34.254Z,535.00
2022-08-21T06:17:29.614Z,541.00
2022-08-21T06:18:25.003Z,536.00
2022-08-21T06:19:20.346Z,526.00
2022-08-21T06:20:15.827Z,530.00
2022-08-21T06:21:11.076Z,527.00
2022-08-21T06:22:06.434Z,535.00
2022-08-21T06:23:01.823Z,527.00
2022-08-21T06:23:57.184Z,528.00
2022-08-21T06:24:52.517Z,519.00
2022-08-21T06:25:47.909Z,527.00
2022-08-21T06:26:43.284Z,528.00
2022-08-21T06:27:38.363Z,532.00
2022-08-21T06:28:33.481Z,538.00
2022-08-21T06:29:28.474Z,529.00
2022-08-21T06:30:23.563Z,528.00
2022-08-21T06:31:18.648Z,536.00
2022-08-21T06:32:13.758Z,532.00
2022-08-21T06:33:08.763Z,536.00
2022-08-21T06:34:03.747Z,544.00
2022-08-21T06:34:58.857Z,539.00
2022-08-21T06:35:53.810Z,532.00
2022-08-21T06:36:50.958Z,528.00
2022-08-21T06:37:46.011Z,532.00
2022-08-21T06:38:41.238Z,524.00
2022-08-21T06:39:36.265Z,532.00
2022-08-21T06:40:35.061Z,528.00
2022-08-21T06:41:27.328Z,537.00
2022-08-21T06:42:21.399Z,532.00
2022-08-21T06:43:17.362Z,535.00
2022-08-21T06:44:11.657Z,534.00
2022-08-21T06:45:07.006Z,533.00
2022-08-21T06:46:02.517Z,540.00
2022-08-21T06:46:57.926Z,555.00
2022-08-21T06:47:53.282Z,536.00
2022-08-21T06:48:48.658Z,549.00
2022-08-21T06:49:44.022Z,542.00
2022-08-21T06:50:39.399Z,537.00
2022-08-21T06:51:34.772Z,534.00
2022-08-21T06:52:30.160Z,539.00
2022-08-21T06:53:25.500Z,536.00
2022-08-21T06:54:20.877Z,534.00
2022-08-21T06:55:21.854Z,539.00
2022-08-21T06:56:14.083Z,535.00
2022-08-21T06:57:08.558Z,536.00
2022-08-21T06:58:03.901Z,532.00
2022-08-21T06:58:59.380Z,545.00
2022-08-21T06:59:54.900Z,543.00
2022-08-21T07:00:50.268Z,537.00
2022-08-21T07:01:49.891Z,540.00
2022-08-21T07:02:45.163Z,540.00
2022-08-21T07:03:40.511Z,545.00
2022-08-21T07:04:35.890Z,542.00
2022-08-21T07:05:31.258Z,539.00
2022-08-21T07:06:26.334Z,543.00
2022-08-21T07:07:21.434Z,547.00
2022-08-21T07:08:16.525Z,545.00
2022-08-21T07:09:11.634Z,544.00
2022-08-21T07:10:06.714Z,546.00
2022-08-21T07:11:01.790Z,553.00
2022-08-21T07:11:57.111Z,559.00
2022-08-21T07:13:00.268Z,550.00
2022-08-21T07:13:48.206Z,552.00
2022-08-21T07:14:42.207Z,549.00
2022-08-21T07:15:37.308Z,546.00
2022-08-21T07:16:33.403Z,544.00
2022-08-21T07:17:28.818Z,543.00
2022-08-21T07:18:24.403Z,545.00
2022-08-21T07:19:19.819Z,544.00
2022-08-21T07:20:15.259Z,556.00
2022-08-21T07:21:10.908Z,548.00
2022-08-21T07:22:06.382Z,547.00
2022-08-21T07:23:01.982Z,545.00
2022-08-21T07:23:57.342Z,545.00
2022-08-21T07:24:52.795Z,549.00
2022-08-21T07:25:48.349Z,555.00
2022-08-21T07:26:43.695Z,540.00
2022-08-21T07:27:39.133Z,552.00
2022-08-21T07:28:34.789Z,551.00
2022-08-21T07:29:29.828Z,542.00
2022-08-21T07:30:24.891Z,554.00
2022-08-21T07:31:20.014Z,547.00
2022-08-21T07:32:19.522Z,545.00
2022-08-21T07:33:11.068Z,549.00
2022-08-21T07:34:05.065Z,543.00
2022-08-21T07:35:00.130Z,540.00
2022-08-21T07:35:57.562Z,540.00
2022-08-21T07:36:52.862Z,547.00
2022-08-21T07:37:48.322Z,542.00
2022-08-21T07:38:43.815Z,543.00
2022-08-21T07:39:39.490Z,544.00
2022-08-21T07:40:34.929Z,545.00
2022-08-21T07:41:30.438Z,532.00
2022-08-21T07:42:26.036Z,537.00
2022-08-21T07:43:21.556Z,527.00
2022-08-21T07:44:17.034Z,536.00
2022-08-21T07:45:12.627Z,545.00
2022-08-21T07:46:08.131Z,539.00
2022-08-21T07:47:03.599Z,534.00
2022-08-21T07:47:59.059Z,540.00
2022-08-21T07:48:54.528Z,536.00
2022-08-21T07:49:49.583Z,530.00
2022-08-21T07:50:44.661Z,530.00
2022-08-21T07:51:39.747Z,536.00
2022-08-21T07:52:34.821Z,532.00
2022-08-21T07:53:29.870Z,532.00
2022-08-21T07:54:27.909Z,525.00
2022-08-21T07:55:20.988Z,528.00
2022-08-21T07:56:15.094Z,527.00
2022-08-21T07:57:10.167Z,530.00
2022-08-21T07:58:05.245Z,523.00
2022-08-21T07:59:02.504Z,531.00
2022-08-21T07:59:57.967Z,527.00
2022-08-21T08:00:53.471Z,521.00
2022-08-21T08:01:48.835Z,529.00
2022-08-21T08:02:44.293Z,528.00
2022-08-21T08:03:39.884Z,528.00
2022-08-21T08:04:35.237Z,530.00
2022-08-21T08:05:30.722Z,523.00
2022-08-21T08:06:26.254Z,525.00
2022-08-21T08:07:21.782Z,527.00
2022-08-21T08:08:17.174Z,523.00
2022-08-21T08:09:12.590Z,527.00
2022-08-21T08:10:07.992Z,524.00
2022-08-21T08:11:03.551Z,533.00
2022-08-21T08:11:58.881Z,530.00
2022-08-21T08:12:53.991Z,527.00
2022-08-21T08:13:49.114Z,527.00
2022-08-21T08:14:44.131Z,531.00
2022-08-21T08:15:39.273Z,528.00
2022-08-21T08:16:34.266Z,532.00
2022-08-21T08:17:29.388Z,528.00
2022-08-21T08:18:24.491Z,530.00
2022-08-21T08:19:19.499Z,521.00
2022-08-21T08:20:14.759Z,527.00
2022-08-21T08:21:09.754Z,527.00
2022-08-21T08:22:04.879Z,526.00
2022-08-21T08:23:00.223Z,519.00
2022-08-21T08:23:55.024Z,525.00
2022-08-21T08:24:50.577Z,530.00
2022-08-21T08:25:45.990Z,525.00
2022-08-21T08:26:41.408Z,522.00
2022-08-21T08:27:37.063Z,481.00
2022-08-21T08:28:32.570Z,480.00
2022-08-21T08:29:28.135Z,473.00
2022-08-21T08:30:23.628Z,483.00
2022-08-21T08:31:18.593Z,480.00
2022-08-21T08:32:13.632Z,470.00
2022-08-21T08:33:08.767Z,481.00
2022-08-21T08:34:03.798Z,476.00
2022-08-21T08:34:58.805Z,472.00
2022-08-21T08:35:53.806Z,470.00
2022-08-21T08:36:48.814Z,469.00
2022-08-21T08:37:46.738Z,475.00
2022-08-21T08:38:41.930Z,474.00
2022-08-21T08:39:36.066Z,469.00
2022-08-21T08:40:31.121Z,471.00
2022-08-21T08:41:30.906Z,474.00
2022-08-21T08:42:32.250Z,474.00
2022-08-21T08:43:19.090Z,470.00
2022-08-21T08:44:13.659Z,470.00
2022-08-21T08:45:09.203Z,478.00
2022-08-21T08:46:04.606Z,476.00
2022-08-21T08:47:00.029Z,472.00
2022-08-21T08:47:55.689Z,474.00
2022-08-21T08:48:53.179Z,475.00
2022-08-21T08:49:46.318Z,473.00
2022-08-21T08:50:41.873Z,476.00
2022-08-21T08:51:37.368Z,475.00
2022-08-21T08:52:32.891Z,479.00
2022-08-21T08:53:28.494Z,480.00
2022-08-21T08:54:23.456Z,478.00
2022-08-21T08:55:18.443Z,470.00
2022-08-21T08:56:13.581Z,480.00
2022-08-21T08:57:08.571Z,476.00
2022-08-21T08:58:03.720Z,429.00
2022-08-21T08:58:58.702Z,419.00
2022-08-21T08:59:53.753Z,420.00
2022-08-21T09:00:48.847Z,425.00
2022-08-21T09:01:43.898Z,428.00
2022-08-21T09:02:38.880Z,432.00
2022-08-21T09:03:33.889Z,426.00
2022-08-21T09:04:29.141Z,430.00
2022-08-21T09:05:24.670Z,426.00
2022-08-21T09:06:19.793Z,436.00
2022-08-21T09:07:14.899Z,415.00
2022-08-21T09:08:09.906Z,414.00
2022-08-21T09:09:04.899Z,412.00
2022-08-21T09:10:00.010Z,413.00
2022-08-21T09:10:55.190Z,413.00
2022-08-21T09:11:50.261Z,421.00
2022-08-21T09:12:45.365Z,419.00
2022-08-21T09:13:40.343Z,424.00
2022-08-21T09:14:35.534Z,424.00
2022-08-21T09:15:30.536Z,414.00
2022-08-21T09:16:25.688Z,415.00
2022-08-21T09:17:20.788Z,414.00
2022-08-21T09:18:15.801Z,414.00
2022-08-21T09:19:11.323Z,412.00
2022-08-21T09:20:06.981Z,415.00
2022-08-21T09:21:02.457Z,414.00
2022-08-21T09:21:57.840Z,410.00
2022-08-21T09:22:53.401Z,412.00
2022-08-21T09:23:48.497Z,408.00
2022-08-21T09:24:43.605Z,414.00
2022-08-21T09:25:38.613Z,404.00
2022-08-21T09:26:33.613Z,401.00
2022-08-21T09:27:28.656Z,401.00
2022-08-21T09:28:23.668Z,406.00
2022-08-21T09:29:18.776Z,410.00
2022-08-21T09:30:14.315Z,404.00
2022-08-21T09:31:09.462Z,408.00
2022-08-21T09:32:04.425Z,408.00
2022-08-21T09:32:59.595Z,421.00
2022-08-21T09:33:55.873Z,417.00
2022-08-21T09:34:51.391Z,424.00
2022-08-21T09:35:46.812Z,415.00
2022-08-21T09:36:42.358Z,442.00
2022-08-21T09:37:37.842Z,420.00
2022-08-21T09:38:33.385Z,402.00
2022-08-21T09:39:28.916Z,404.00
2022-08-21T09:40:24.254Z,396.00
2022-08-21T09:41:19.508Z,397.00
2022-08-21T09:42:14.959Z,404.00
2022-08-21T09:43:10.427Z,399.00
2022-08-21T09:44:05.847Z,401.00
2022-08-21T09:45:01.368Z,410.00
2022-08-21T09:45:56.812Z,403.00
2022-08-21T09:46:51.783Z,409.00
2022-08-21T09:47:46.884Z,410.00
2022-08-21T09:48:41.894Z,411.00
2022-08-21T09:49:36.951Z,420.00
2022-08-21T09:50:32.082Z,412.00
2022-08-21T09:51:27.143Z,409.00
2022-08-21T09:52:22.197Z,408.00
2022-08-21T09:53:19.835Z,405.00
2022-08-21T09:54:14.854Z,419.00
2022-08-21T09:55:09.905Z,409.00
2022-08-21T09:56:06.005Z,407.00
2022-08-21T09:57:01.234Z,411.00
2022-08-21T09:57:56.693Z,407.00
2022-08-21T09:58:52.055Z,407.00
2022-08-21T09:59:47.494Z,408.00
2022-08-21T10:00:43.084Z,418.00
2022-08-21T10:01:38.571Z,420.00
2022-08-21T10:02:34.192Z,418.00
2022-08-21T10:03:29.674Z,412.00
2022-08-21T10:04:26.530Z,413.00
2022-08-21T10:05:22.176Z,411.00
2022-08-21T10:06:17.693Z,417.00
2022-08-21T10:07:13.126Z,411.00
2022-08-21T10:08:08.671Z,416.00
2022-08-21T10:09:04.249Z,415.00
2022-08-21T10:09:59.355Z,411.00
2022-08-21T10:10:56.486Z,403.00
2022-08-21T10:11:49.604Z,408.00
2022-08-21T10:12:44.597Z,412.00
2022-08-21T10:13:39.726Z,405.00
2022-08-21T10:14:34.783Z,407.00
2022-08-21T10:15:30.830Z,424.00
2022-08-21T10:16:26.425Z,411.00
2022-08-21T10:17:21.452Z,407.00
2022-08-21T10:18:16.569Z,406.00
2022-08-21T10:19:11.578Z,402.00
2022-08-21T10:20:06.678Z,400.00
2022-08-21T10:21:01.814Z,409.00
2022-08-21T10:21:56.823Z,413.00
2022-08-21T10:22:51.947Z,408.00
2022-08-21T10:23:46.903Z,395.00
2022-08-21T10:24:41.939Z,398.00
2022-08-21T10:25:36.958Z,397.00
2022-08-21T10:26:32.430Z,391.00
2022-08-21T10:27:27.860Z,393.00
2022-08-21T10:28:23.308Z,393.00
2022-08-21T10:29:18.351Z,396.00
2022-08-21T10:30:13.455Z,391.00
2022-08-21T10:31:08.394Z,392.00
2022-08-21T10:32:04.915Z,394.00
2022-08-21T10:33:00.968Z,393.00
2022-08-21T10:33:54.947Z,394.00
2022-08-21T10:34:50.002Z,390.00
2022-08-21T10:35:46.251Z,389.00
2022-08-21T10:36:41.589Z,396.00
2022-08-21T10:37:37.140Z,397.00
2022-08-21T10:38:50.299Z,390.00
2022-08-21T10:39:35.690Z,403.00
2022-08-21T10:40:25.034Z,401.00
2022-08-21T10:41:19.447Z,399.00
2022-08-21T10:42:14.877Z,402.00
2022-08-21T10:43:10.352Z,406.00
2022-08-21T10:44:05.843Z,387.00
2022-08-21T10:45:01.283Z,393.00
2022-08-21T10:45:56.313Z,387.00
2022-08-21T10:46:51.376Z,391.00
2022-08-21T10:47:46.543Z,392.00
2022-08-21T10:48:41.632Z,389.00
2022-08-21T10:49:36.670Z,397.00
2022-08-21T10:50:31.745Z,394.00
2022-08-21T10:51:29.393Z,394.00
2022-08-21T10:52:21.785Z,390.00
2022-08-21T10:53:16.884Z,392.00
2022-08-21T10:54:11.935Z,394.00
2022-08-21T10:55:08.479Z,397.00
2022-08-21T10:56:03.506Z,393.00
2022-08-21T10:56:58.547Z,397.00
2022-08-21T10:57:53.563Z,398.00
2022-08-21T10:58:49.805Z,404.00
2022-08-21T10:59:45.254Z,397.00
2022-08-21T11:00:40.799Z,402.00
2022-08-21T11:01:36.112Z,392.00
2022-08-21T11:02:31.576Z,396.00
2022-08-21T11:03:26.923Z,389.00
2022-08-21T11:04:21.923Z,395.00
2022-08-21T11:05:17.101Z,401.00
2022-08-21T11:06:12.303Z,402.00
2022-08-21T11:07:17.193Z,399.00
2022-08-21T11:08:03.435Z,411.00
2022-08-21T11:08:57.458Z,408.00
2022-08-21T11:09:52.502Z,402.00
2022-08-21T11:10:57.880Z,405.00
2022-08-21T11:11:50.167Z,397.00
2022-08-21T11:12:39.531Z,403.00
2022-08-21T11:13:33.891Z,404.00
2022-08-21T11:14:29.332Z,404.00
2022-08-21T11:15:29.272Z,408.00
2022-08-21T11:16:20.418Z,408.00
2022-08-21T11:17:14.535Z,408.00
2022-08-21T11:18:11.209Z,408.00
2022-08-21T11:19:06.808Z,410.00
2022-08-21T11:20:02.156Z,403.00
2022-08-21T11:20:57.609Z,410.00
2022-08-21T11:21:53.184Z,407.00
2022-08-21T11:22:52.599Z,408.00
2022-08-21T11:23:45.119Z,409.00
2022-08-21T11:24:39.495Z,405.00
2022-08-21T11:25:36.938Z,410.00
2022-08-21T11:26:30.364Z,413.00
2022-08-21T11:27:25.844Z,411.00
2022-08-21T11:28:21.478Z,411.00
2022-08-21T11:29:16.898Z,407.00
2022-08-21T11:30:12.241Z,415.00
2022-08-21T11:31:11.496Z,409.00